sensor_id;sensor_type;location;lat;lon;timestamp;pressure;altitude;pressure_sealevel;temperature;humidity
48563;BME280;34981;49.104;11.396;2023-08-24T00:02:09;95395.19;;;18.98;100.00
48563;BME280;34981;49.104;11.396;2023-08-24T00:04:37;95400.56;;;19.31;100.00
48563;BME280;34981;49.104;11.396;2023-08-24T00:07:04;95402.66;;;19.59;100.00
48563;BME280;34981;49.104;11.396;2023-08-24T00:09:31;95396.97;;;19.52;100.00
48563;BME280;34981;49.104;11.396;2023-08-24T00:11:59;95399.38;;;19.53;100.00
48563;BME280;34981;49.104;11.396;2023-08-24T00:14:26;95386.03;;;19.39;100.00
48563;BME280;34981;49.104;11.396;2023-08-24T00:16:53;95393.81;;;19.50;100.00
48563;BME280;34981;49.104;11.396;2023-08-24T00:19:22;95394.31;;;19.31;100.00
48563;BME280;34981;49.104;11.396;2023-08-24T00:21:49;95399.31;;;19.29;100.00
48563;BME280;34981;49.104;11.396;2023-08-24T00:24:16;95408.03;;;19.22;100.00
48563;BME280;34981;49.104;11.396;2023-08-24T00:26:44;95402.81;;;19.17;100.00
48563;BME280;34981;49.104;11.396;2023-08-24T00:29:11;95401.22;;;19.16;100.00
48563;BME280;34981;49.104;11.396;2023-08-24T00:31:39;95407.34;;;19.13;100.00
48563;BME280;34981;49.104;11.396;2023-08-24T00:34:06;95415.16;;;19.02;100.00
48563;BME280;34981;49.104;11.396;2023-08-24T00:36:35;95423.22;;;18.99;100.00
48563;BME280;34981;49.104;11.396;2023-08-24T00:39:04;95426.00;;;18.90;100.00
48563;BME280;34981;49.104;11.396;2023-08-24T00:41:31;95437.59;;;18.66;100.00
48563;BME280;34981;49.104;11.396;2023-08-24T00:43:58;95464.84;;;18.99;100.00
48563;BME280;34981;49.104;11.396;2023-08-24T00:46:25;95466.00;;;18.98;100.00
48563;BME280;34981;49.104;11.396;2023-08-24T00:48:54;95462.13;;;18.99;100.00
48563;BME280;34981;49.104;11.396;2023-08-24T00:51:24;95456.81;;;19.03;100.00
48563;BME280;34981;49.104;11.396;2023-08-24T00:53:51;95455.22;;;19.02;100.00
48563;BME280;34981;49.104;11.396;2023-08-24T00:56:19;95456.34;;;19.01;100.00
48563;BME280;34981;49.104;11.396;2023-08-24T00:58:51;95452.25;;;18.95;100.00
48563;BME280;34981;49.104;11.396;2023-08-24T01:01:20;95452.97;;;19.04;100.00
48563;BME280;34981;49.104;11.396;2023-08-24T01:03:48;95456.44;;;18.72;100.00
48563;BME280;34981;49.104;11.396;2023-08-24T01:06:15;95465.84;;;18.33;100.00
48563;BME280;34981;49.104;11.396;2023-08-24T01:08:42;95507.31;;;18.00;100.00
48563;BME280;34981;49.104;11.396;2023-08-24T01:11:16;95562.09;;;18.49;100.00
48563;BME280;34981;49.104;11.396;2023-08-24T01:13:51;95573.69;;;18.75;100.00
48563;BME280;34981;49.104;11.396;2023-08-24T01:16:25;95544.97;;;18.48;100.00
48563;BME280;34981;49.104;11.396;2023-08-24T01:18:58;95562.47;;;18.77;100.00
48563;BME280;34981;49.104;11.396;2023-08-24T01:21:29;95540.19;;;18.75;100.00
48563;BME280;34981;49.104;11.396;2023-08-24T01:24:13;95525.38;;;18.63;100.00
48563;BME280;34981;49.104;11.396;2023-08-24T01:26:44;95538.72;;;18.56;100.00
48563;BME280;34981;49.104;11.396;2023-08-24T01:29:12;95543.03;;;18.57;100.00
48563;BME280;34981;49.104;11.396;2023-08-24T01:31:39;95550.25;;;18.24;100.00
48563;BME280;34981;49.104;11.396;2023-08-24T01:34:06;95576.13;;;18.30;100.00
48563;BME280;34981;49.104;11.396;2023-08-24T01:36:33;95595.94;;;18.39;100.00
48563;BME280;34981;49.104;11.396;2023-08-24T01:39:11;95590.47;;;18.48;100.00
48563;BME280;34981;49.104;11.396;2023-08-24T01:41:40;95589.38;;;18.40;100.00
48563;BME280;34981;49.104;11.396;2023-08-24T01:44:12;95600.28;;;18.40;100.00
48563;BME280;34981;49.104;11.396;2023-08-24T01:46:39;95583.75;;;18.45;100.00
48563;BME280;34981;49.104;11.396;2023-08-24T01:49:12;95583.06;;;18.57;100.00
48563;BME280;34981;49.104;11.396;2023-08-24T01:51:40;95575.06;;;18.52;100.00
48563;BME280;34981;49.104;11.396;2023-08-24T01:54:09;95560.38;;;18.44;100.00
48563;BME280;34981;49.104;11.396;2023-08-24T01:56:36;95562.09;;;18.57;100.00
48563;BME280;34981;49.104;11.396;2023-08-24T01:59:03;95561.44;;;18.52;100.00
48563;BME280;34981;49.104;11.396;2023-08-24T02:01:30;95561.81;;;18.42;100.00
48563;BME280;34981;49.104;11.396;2023-08-24T02:03:58;95558.00;;;18.34;100.00
48563;BME280;34981;49.104;11.396;2023-08-24T02:06:26;95573.97;;;18.44;100.00
48563;BME280;34981;49.104;11.396;2023-08-24T02:08:54;95567.53;;;18.49;100.00
48563;BME280;34981;49.104;11.396;2023-08-24T02:11:21;95566.53;;;18.33;100.00
48563;BME280;34981;49.104;11.396;2023-08-24T02:13:48;95577.88;;;18.35;100.00
48563;BME280;34981;49.104;11.396;2023-08-24T02:16:15;95573.38;;;18.39;100.00
48563;BME280;34981;49.104;11.396;2023-08-24T02:18:43;95558.59;;;18.19;100.00
48563;BME280;34981;49.104;11.396;2023-08-24T02:21:10;95575.06;;;18.22;100.00
48563;BME280;34981;49.104;11.396;2023-08-24T02:23:39;95582.44;;;18.13;100.00
48563;BME280;34981;49.104;11.396;2023-08-24T02:26:06;95587.63;;;17.98;100.00
48563;BME280;34981;49.104;11.396;2023-08-24T02:28:35;95605.38;;;18.04;100.00
48563;BME280;34981;49.104;11.396;2023-08-24T02:31:03;95601.97;;;18.15;100.00
48563;BME280;34981;49.104;11.396;2023-08-24T02:33:30;95598.09;;;18.25;100.00
48563;BME280;34981;49.104;11.396;2023-08-24T02:35:58;95585.81;;;18.19;100.00
48563;BME280;34981;49.104;11.396;2023-08-24T02:38:25;95603.81;;;17.85;100.00
48563;BME280;34981;49.104;11.396;2023-08-24T02:41:05;95634.16;;;18.05;100.00
48563;BME280;34981;49.104;11.396;2023-08-24T02:43:33;95624.81;;;18.23;100.00
48563;BME280;34981;49.104;11.396;2023-08-24T02:46:04;95590.75;;;18.25;100.00
48563;BME280;34981;49.104;11.396;2023-08-24T02:48:32;95585.66;;;18.15;100.00
48563;BME280;34981;49.104;11.396;2023-08-24T02:51:02;95586.56;;;18.19;100.00
48563;BME280;34981;49.104;11.396;2023-08-24T02:53:30;95574.13;;;18.18;100.00
48563;BME280;34981;49.104;11.396;2023-08-24T02:55:57;95575.88;;;18.14;100.00
48563;BME280;34981;49.104;11.396;2023-08-24T02:58:25;95586.59;;;17.73;100.00
48563;BME280;34981;49.104;11.396;2023-08-24T03:00:52;95652.28;;;17.58;100.00
48563;BME280;34981;49.104;11.396;2023-08-24T03:03:19;95685.41;;;17.68;100.00
48563;BME280;34981;49.104;11.396;2023-08-24T03:05:57;95716.72;;;17.48;100.00
48563;BME280;34981;49.104;11.396;2023-08-24T03:08:27;95742.66;;;17.72;100.00
48563;BME280;34981;49.104;11.396;2023-08-24T03:10:55;95708.44;;;17.97;100.00
48563;BME280;34981;49.104;11.396;2023-08-24T03:13:22;95672.28;;;17.96;100.00
48563;BME280;34981;49.104;11.396;2023-08-24T03:15:51;95649.69;;;18.04;100.00
48563;BME280;34981;49.104;11.396;2023-08-24T03:18:19;95632.09;;;18.02;100.00
48563;BME280;34981;49.104;11.396;2023-08-24T03:20:47;95624.25;;;18.09;100.00
48563;BME280;34981;49.104;11.396;2023-08-24T03:23:15;95609.72;;;17.96;100.00
48563;BME280;34981;49.104;11.396;2023-08-24T03:25:43;95611.69;;;17.78;100.00
48563;BME280;34981;49.104;11.396;2023-08-24T03:28:11;95647.97;;;17.48;100.00
48563;BME280;34981;49.104;11.396;2023-08-24T03:30:46;95708.41;;;17.36;100.00
48563;BME280;34981;49.104;11.396;2023-08-24T03:33:14;95749.34;;;17.57;100.00
48563;BME280;34981;49.104;11.396;2023-08-24T03:35:41;95736.44;;;17.80;100.00
48563;BME280;34981;49.104;11.396;2023-08-24T03:38:08;95711.66;;;17.81;100.00
48563;BME280;34981;49.104;11.396;2023-08-24T03:40:36;95698.97;;;17.42;100.00
48563;BME280;34981;49.104;11.396;2023-08-24T03:43:04;95729.63;;;17.26;100.00
48563;BME280;34981;49.104;11.396;2023-08-24T03:45:31;95774.56;;;17.32;100.00
48563;BME280;34981;49.104;11.396;2023-08-24T03:47:58;95787.97;;;17.20;100.00
48563;BME280;34981;49.104;11.396;2023-08-24T03:50:26;95809.88;;;17.23;100.00
48563;BME280;34981;49.104;11.396;2023-08-24T03:52:53;95808.41;;;17.26;100.00
48563;BME280;34981;49.104;11.396;2023-08-24T03:55:21;95805.41;;;17.27;100.00
48563;BME280;34981;49.104;11.396;2023-08-24T03:57:48;95805.69;;;17.26;100.00
48563;BME280;34981;49.104;11.396;2023-08-24T04:00:16;95817.59;;;17.47;100.00
48563;BME280;34981;49.104;11.396;2023-08-24T04:02:44;95742.66;;;17.63;100.00
48563;BME280;34981;49.104;11.396;2023-08-24T04:05:19;95695.97;;;17.61;100.00
48563;BME280;34981;49.104;11.396;2023-08-24T04:07:47;95679.66;;;17.78;100.00
48563;BME280;34981;49.104;11.396;2023-08-24T04:10:15;95649.91;;;17.82;100.00
48563;BME280;34981;49.104;11.396;2023-08-24T04:12:42;95635.84;;;17.80;100.00
48563;BME280;34981;49.104;11.396;2023-08-24T04:15:10;95635.34;;;17.78;100.00
48563;BME280;34981;49.104;11.396;2023-08-24T04:17:38;95630.06;;;17.81;100.00
48563;BME280;34981;49.104;11.396;2023-08-24T04:20:08;95643.81;;;17.76;100.00
48563;BME280;34981;49.104;11.396;2023-08-24T04:22:35;95630.22;;;17.76;100.00
48563;BME280;34981;49.104;11.396;2023-08-24T04:25:03;95632.16;;;17.76;100.00
48563;BME280;34981;49.104;11.396;2023-08-24T04:27:31;95638.38;;;17.76;100.00
48563;BME280;34981;49.104;11.396;2023-08-24T04:29:59;95651.03;;;17.72;100.00
48563;BME280;34981;49.104;11.396;2023-08-24T04:32:31;95656.47;;;17.72;100.00
48563;BME280;34981;49.104;11.396;2023-08-24T04:34:58;95666.53;;;17.80;100.00
48563;BME280;34981;49.104;11.396;2023-08-24T04:37:25;95656.47;;;17.64;100.00
48563;BME280;34981;49.104;11.396;2023-08-24T04:39:52;95673.28;;;17.74;100.00
48563;BME280;34981;49.104;11.396;2023-08-24T04:42:19;95670.69;;;17.86;100.00
48563;BME280;34981;49.104;11.396;2023-08-24T04:44:46;95657.56;;;17.88;100.00
48563;BME280;34981;49.104;11.396;2023-08-24T04:47:14;95659.63;;;18.00;100.00
48563;BME280;34981;49.104;11.396;2023-08-24T04:49:41;95656.28;;;17.95;100.00
48563;BME280;34981;49.104;11.396;2023-08-24T04:52:08;95667.28;;;17.98;100.00
48563;BME280;34981;49.104;11.396;2023-08-24T04:54:35;95669.66;;;18.17;100.00
48563;BME280;34981;49.104;11.396;2023-08-24T04:57:02;95656.06;;;18.17;100.00
48563;BME280;34981;49.104;11.396;2023-08-24T04:59:29;95662.41;;;18.29;100.00
48563;BME280;34981;49.104;11.396;2023-08-24T05:01:56;95654.06;;;18.35;100.00
48563;BME280;34981;49.104;11.396;2023-08-24T05:04:24;95654.41;;;18.33;100.00
48563;BME280;34981;49.104;11.396;2023-08-24T05:06:51;95649.25;;;18.40;100.00
48563;BME280;34981;49.104;11.396;2023-08-24T05:09:18;95646.84;;;18.39;100.00
48563;BME280;34981;49.104;11.396;2023-08-24T05:11:45;95672.97;;;18.40;100.00
48563;BME280;34981;49.104;11.396;2023-08-24T05:14:12;95689.56;;;18.47;100.00
48563;BME280;34981;49.104;11.396;2023-08-24T05:16:41;95706.75;;;18.30;100.00
48563;BME280;34981;49.104;11.396;2023-08-24T05:19:08;95748.06;;;18.32;100.00
48563;BME280;34981;49.104;11.396;2023-08-24T05:21:35;95781.66;;;18.36;100.00
48563;BME280;34981;49.104;11.396;2023-08-24T05:24:02;95783.41;;;18.58;100.00
48563;BME280;34981;49.104;11.396;2023-08-24T05:26:31;95775.25;;;18.96;100.00
48563;BME280;34981;49.104;11.396;2023-08-24T05:28:58;95741.25;;;19.02;100.00
48563;BME280;34981;49.104;11.396;2023-08-24T05:31:25;95772.63;;;19.08;100.00
48563;BME280;34981;49.104;11.396;2023-08-24T05:33:53;95786.66;;;19.27;100.00
48563;BME280;34981;49.104;11.396;2023-08-24T05:36:20;95792.47;;;19.55;100.00
48563;BME280;34981;49.104;11.396;2023-08-24T05:38:47;95771.13;;;19.78;100.00
48563;BME280;34981;49.104;11.396;2023-08-24T05:41:31;95738.66;;;19.85;100.00
48563;BME280;34981;49.104;11.396;2023-08-24T05:43:58;95732.94;;;19.78;100.00
48563;BME280;34981;49.104;11.396;2023-08-24T05:46:26;95747.97;;;19.84;100.00
48563;BME280;34981;49.104;11.396;2023-08-24T05:48:53;95743.84;;;19.99;100.00
48563;BME280;34981;49.104;11.396;2023-08-24T05:51:20;95726.81;;;20.35;100.00
48563;BME280;34981;49.104;11.396;2023-08-24T05:53:47;95715.31;;;20.74;100.00
48563;BME280;34981;49.104;11.396;2023-08-24T05:56:14;95655.66;;;20.88;100.00
48563;BME280;34981;49.104;11.396;2023-08-24T05:58:41;95606.56;;;21.16;100.00
48563;BME280;34981;49.104;11.396;2023-08-24T06:01:08;95544.06;;;21.03;100.00
48563;BME280;34981;49.104;11.396;2023-08-24T06:03:35;95498.66;;;20.86;100.00
48563;BME280;34981;49.104;11.396;2023-08-24T06:06:03;95470.88;;;21.24;100.00
48563;BME280;34981;49.104;11.396;2023-08-24T06:08:31;95457.88;;;21.64;100.00
48563;BME280;34981;49.104;11.396;2023-08-24T06:10:58;95424.53;;;21.43;100.00
48563;BME280;34981;49.104;11.396;2023-08-24T06:13:25;95413.78;;;21.82;100.00
48563;BME280;34981;49.104;11.396;2023-08-24T06:15:53;95411.47;;;21.84;100.00
48563;BME280;34981;49.104;11.396;2023-08-24T06:18:21;95398.22;;;21.86;100.00
48563;BME280;34981;49.104;11.396;2023-08-24T06:20:49;95387.56;;;21.96;100.00
48563;BME280;34981;49.104;11.396;2023-08-24T06:23:16;95369.53;;;21.95;100.00
48563;BME280;34981;49.104;11.396;2023-08-24T06:25:44;95361.25;;;21.76;100.00
48563;BME280;34981;49.104;11.396;2023-08-24T06:30:38;95367.94;;;21.94;100.00
48563;BME280;34981;49.104;11.396;2023-08-24T06:33:06;95373.97;;;21.68;100.00
48563;BME280;34981;49.104;11.396;2023-08-24T06:35:33;95381.38;;;21.84;100.00
48563;BME280;34981;49.104;11.396;2023-08-24T06:38:01;95381.00;;;21.85;100.00
48563;BME280;34981;49.104;11.396;2023-08-24T06:40:29;95377.91;;;21.87;100.00
48563;BME280;34981;49.104;11.396;2023-08-24T06:42:56;95381.13;;;21.57;100.00
48563;BME280;34981;49.104;11.396;2023-08-24T06:45:23;95382.19;;;21.68;100.00
48563;BME280;34981;49.104;11.396;2023-08-24T06:47:51;95380.94;;;21.82;100.00
48563;BME280;34981;49.104;11.396;2023-08-24T06:50:19;95381.84;;;21.54;100.00
48563;BME280;34981;49.104;11.396;2023-08-24T06:52:47;95381.97;;;21.77;100.00
48563;BME280;34981;49.104;11.396;2023-08-24T06:55:14;95375.47;;;21.82;100.00
48563;BME280;34981;49.104;11.396;2023-08-24T06:57:41;95378.19;;;21.82;100.00
48563;BME280;34981;49.104;11.396;2023-08-24T07:00:08;95369.56;;;21.48;100.00
48563;BME280;34981;49.104;11.396;2023-08-24T07:02:36;95353.88;;;21.29;100.00
48563;BME280;34981;49.104;11.396;2023-08-24T07:05:04;95385.25;;;21.35;100.00
48563;BME280;34981;49.104;11.396;2023-08-24T07:07:35;95409.38;;;21.61;100.00
48563;BME280;34981;49.104;11.396;2023-08-24T07:10:03;95401.34;;;21.68;100.00
48563;BME280;34981;49.104;11.396;2023-08-24T07:12:31;95389.25;;;21.38;100.00
48563;BME280;34981;49.104;11.396;2023-08-24T07:14:58;95403.69;;;21.86;100.00
48563;BME280;34981;49.104;11.396;2023-08-24T07:17:25;95397.88;;;21.87;100.00
48563;BME280;34981;49.104;11.396;2023-08-24T07:19:52;95408.38;;;21.85;100.00
48563;BME280;34981;49.104;11.396;2023-08-24T07:22:19;95414.00;;;22.24;100.00
48563;BME280;34981;49.104;11.396;2023-08-24T07:24:47;95398.31;;;22.05;100.00
48563;BME280;34981;49.104;11.396;2023-08-24T07:27:19;95395.03;;;22.15;100.00
48563;BME280;34981;49.104;11.396;2023-08-24T07:29:46;95392.75;;;21.86;100.00
48563;BME280;34981;49.104;11.396;2023-08-24T07:32:13;95376.16;;;22.10;100.00
48563;BME280;34981;49.104;11.396;2023-08-24T07:34:40;95368.94;;;22.56;100.00
48563;BME280;34981;49.104;11.396;2023-08-24T07:37:07;95362.28;;;22.96;100.00
48563;BME280;34981;49.104;11.396;2023-08-24T07:39:34;95374.44;;;23.59;100.00
48563;BME280;34981;49.104;11.396;2023-08-24T07:42:01;95350.81;;;23.78;100.00
48563;BME280;34981;49.104;11.396;2023-08-24T07:44:29;95343.56;;;23.89;100.00
48563;BME280;34981;49.104;11.396;2023-08-24T07:46:57;95323.41;;;24.08;100.00
48563;BME280;34981;49.104;11.396;2023-08-24T07:49:24;95319.94;;;24.11;100.00
48563;BME280;34981;49.104;11.396;2023-08-24T07:51:51;95305.09;;;24.15;100.00
48563;BME280;34981;49.104;11.396;2023-08-24T07:54:18;95307.25;;;24.29;100.00
48563;BME280;34981;49.104;11.396;2023-08-24T07:56:45;95297.56;;;24.38;100.00
48563;BME280;34981;49.104;11.396;2023-08-24T07:59:12;95290.88;;;25.06;100.00
48563;BME280;34981;49.104;11.396;2023-08-24T08:01:40;95284.09;;;25.85;100.00
48563;BME280;34981;49.104;11.396;2023-08-24T08:04:07;95279.38;;;25.89;100.00
48563;BME280;34981;49.104;11.396;2023-08-24T08:06:34;95271.44;;;25.29;100.00
48563;BME280;34981;49.104;11.396;2023-08-24T08:09:01;95274.59;;;25.31;100.00
48563;BME280;34981;49.104;11.396;2023-08-24T08:11:28;95276.66;;;25.41;100.00
48563;BME280;34981;49.104;11.396;2023-08-24T08:13:56;95275.56;;;25.53;100.00
48563;BME280;34981;49.104;11.396;2023-08-24T08:16:23;95274.19;;;26.46;100.00
48563;BME280;34981;49.104;11.396;2023-08-24T08:18:50;95282.25;;;26.07;100.00
48563;BME280;34981;49.104;11.396;2023-08-24T08:21:17;95275.25;;;26.20;100.00
48563;BME280;34981;49.104;11.396;2023-08-24T08:23:48;95263.44;;;26.19;100.00
48563;BME280;34981;49.104;11.396;2023-08-24T08:26:16;95252.66;;;26.83;100.00
48563;BME280;34981;49.104;11.396;2023-08-24T08:28:43;95242.34;;;26.62;100.00
48563;BME280;34981;49.104;11.396;2023-08-24T08:31:11;95235.78;;;27.09;100.00
48563;BME280;34981;49.104;11.396;2023-08-24T08:33:38;95256.59;;;26.86;100.00
48563;BME280;34981;49.104;11.396;2023-08-24T08:36:06;95255.50;;;27.22;100.00
48563;BME280;34981;49.104;11.396;2023-08-24T08:38:33;95281.81;;;26.84;100.00
48563;BME280;34981;49.104;11.396;2023-08-24T08:41:03;95287.31;;;26.84;100.00
48563;BME280;34981;49.104;11.396;2023-08-24T08:43:31;95287.03;;;27.35;100.00
48563;BME280;34981;49.104;11.396;2023-08-24T08:45:58;95313.50;;;27.97;100.00
48563;BME280;34981;49.104;11.396;2023-08-24T08:48:26;95351.00;;;27.73;100.00
48563;BME280;34981;49.104;11.396;2023-08-24T08:50:55;95345.84;;;27.78;100.00
48563;BME280;34981;49.104;11.396;2023-08-24T08:53:23;95362.44;;;27.71;100.00
48563;BME280;34981;49.104;11.396;2023-08-24T08:55:51;95377.41;;;27.84;100.00
48563;BME280;34981;49.104;11.396;2023-08-24T08:58:19;95396.38;;;27.86;100.00
48563;BME280;34981;49.104;11.396;2023-08-24T09:00:47;95399.47;;;28.62;100.00
48563;BME280;34981;49.104;11.396;2023-08-24T09:03:18;95402.59;;;28.79;100.00
48563;BME280;34981;49.104;11.396;2023-08-24T09:05:46;95429.53;;;28.39;100.00
48563;BME280;34981;49.104;11.396;2023-08-24T09:08:17;95433.06;;;27.79;100.00
48563;BME280;34981;49.104;11.396;2023-08-24T09:10:45;95373.47;;;28.32;100.00
48563;BME280;34981;49.104;11.396;2023-08-24T09:13:12;95368.63;;;28.67;100.00
48563;BME280;34981;49.104;11.396;2023-08-24T09:15:39;95403.41;;;28.79;100.00
48563;BME280;34981;49.104;11.396;2023-08-24T09:18:07;95390.34;;;28.80;100.00
48563;BME280;34981;49.104;11.396;2023-08-24T09:20:35;95438.22;;;27.88;100.00
48563;BME280;34981;49.104;11.396;2023-08-24T09:23:02;95461.09;;;28.06;100.00
48563;BME280;34981;49.104;11.396;2023-08-24T09:25:29;95421.66;;;28.34;100.00
48563;BME280;34981;49.104;11.396;2023-08-24T09:28:00;95459.09;;;27.71;100.00
48563;BME280;34981;49.104;11.396;2023-08-24T09:30:34;95513.25;;;28.43;100.00
48563;BME280;34981;49.104;11.396;2023-08-24T09:33:11;95544.44;;;28.15;100.00
48563;BME280;34981;49.104;11.396;2023-08-24T09:35:38;95528.69;;;28.44;100.00
48563;BME280;34981;49.104;11.396;2023-08-24T09:38:21;95549.22;;;29.07;100.00
48563;BME280;34981;49.104;11.396;2023-08-24T09:40:53;95594.69;;;29.06;100.00
48563;BME280;34981;49.104;11.396;2023-08-24T09:43:20;95567.75;;;29.24;100.00
48563;BME280;34981;49.104;11.396;2023-08-24T09:45:54;95568.56;;;29.21;100.00
48563;BME280;34981;49.104;11.396;2023-08-24T09:48:22;95567.78;;;29.03;100.00
48563;BME280;34981;49.104;11.396;2023-08-24T09:50:52;95519.13;;;29.16;100.00
48563;BME280;34981;49.104;11.396;2023-08-24T09:53:22;95514.03;;;29.04;100.00
48563;BME280;34981;49.104;11.396;2023-08-24T09:55:54;95508.41;;;29.39;100.00
48563;BME280;34981;49.104;11.396;2023-08-24T09:58:22;95477.19;;;29.18;100.00
48563;BME280;34981;49.104;11.396;2023-08-24T10:00:50;95493.47;;;28.98;100.00
48563;BME280;34981;49.104;11.396;2023-08-24T10:03:18;95484.72;;;29.17;100.00
48563;BME280;34981;49.104;11.396;2023-08-24T10:05:56;95490.69;;;29.99;100.00
48563;BME280;34981;49.104;11.396;2023-08-24T10:08:36;95525.44;;;30.14;100.00
48563;BME280;34981;49.104;11.396;2023-08-24T10:11:03;95539.69;;;30.16;100.00
48563;BME280;34981;49.104;11.396;2023-08-24T10:16:08;95560.44;;;29.87;100.00
48563;BME280;34981;49.104;11.396;2023-08-24T10:18:37;95561.00;;;30.27;100.00
48563;BME280;34981;49.104;11.396;2023-08-24T10:21:04;95595.34;;;29.67;100.00
48563;BME280;34981;49.104;11.396;2023-08-24T10:23:31;95575.31;;;30.22;100.00
48563;BME280;34981;49.104;11.396;2023-08-24T10:25:58;95552.13;;;29.87;100.00
48563;BME280;34981;49.104;11.396;2023-08-24T10:28:27;95555.06;;;29.34;100.00
48563;BME280;34981;49.104;11.396;2023-08-24T10:30:55;95535.25;;;29.57;100.00
48563;BME280;34981;49.104;11.396;2023-08-24T10:33:22;95542.97;;;30.01;100.00
48563;BME280;34981;49.104;11.396;2023-08-24T10:35:50;95542.81;;;29.24;100.00
48563;BME280;34981;49.104;11.396;2023-08-24T10:40:51;95578.81;;;29.24;100.00
48563;BME280;34981;49.104;11.396;2023-08-24T10:43:18;95553.34;;;29.75;100.00
48563;BME280;34981;49.104;11.396;2023-08-24T10:46:01;95590.66;;;29.32;100.00
48563;BME280;34981;49.104;11.396;2023-08-24T10:53:41;95576.69;;;29.74;100.00
48563;BME280;34981;49.104;11.396;2023-08-24T10:56:12;95550.28;;;29.56;100.00
48563;BME280;34981;49.104;11.396;2023-08-24T10:58:39;95579.44;;;29.85;100.00
48563;BME280;34981;49.104;11.396;2023-08-24T11:01:06;95588.81;;;30.16;100.00
48563;BME280;34981;49.104;11.396;2023-08-24T11:03:34;95605.41;;;30.19;100.00
48563;BME280;34981;49.104;11.396;2023-08-24T11:06:01;95617.25;;;30.27;100.00
48563;BME280;34981;49.104;11.396;2023-08-24T11:08:44;95645.75;;;30.35;100.00
48563;BME280;34981;49.104;11.396;2023-08-24T11:11:21;95625.94;;;30.33;100.00
48563;BME280;34981;49.104;11.396;2023-08-24T11:16:43;95611.13;;;29.80;100.00
48563;BME280;34981;49.104;11.396;2023-08-24T11:19:11;95613.47;;;29.89;100.00
48563;BME280;34981;49.104;11.396;2023-08-24T11:21:40;95591.16;;;30.17;100.00
48563;BME280;34981;49.104;11.396;2023-08-24T11:24:08;95615.56;;;30.51;100.00
48563;BME280;34981;49.104;11.396;2023-08-24T11:26:42;95627.88;;;30.46;100.00
48563;BME280;34981;49.104;11.396;2023-08-24T11:29:10;95643.69;;;30.49;100.00
48563;BME280;34981;49.104;11.396;2023-08-24T11:31:38;95637.72;;;30.58;100.00
48563;BME280;34981;49.104;11.396;2023-08-24T11:34:09;95656.94;;;30.13;100.00
48563;BME280;34981;49.104;11.396;2023-08-24T11:36:46;95650.69;;;29.95;100.00
48563;BME280;34981;49.104;11.396;2023-08-24T11:39:17;95629.00;;;30.60;100.00
48563;BME280;34981;49.104;11.396;2023-08-24T11:41:55;95638.59;;;30.37;100.00
48563;BME280;34981;49.104;11.396;2023-08-24T11:44:23;95665.31;;;30.79;100.00
48563;BME280;34981;49.104;11.396;2023-08-24T11:46:56;95670.16;;;30.68;100.00
48563;BME280;34981;49.104;11.396;2023-08-24T11:49:23;95657.53;;;30.60;100.00
48563;BME280;34981;49.104;11.396;2023-08-24T11:51:51;95679.56;;;30.05;100.00
48563;BME280;34981;49.104;11.396;2023-08-24T11:54:18;95674.31;;;30.25;100.00
48563;BME280;34981;49.104;11.396;2023-08-24T11:56:46;95669.97;;;30.24;100.00
48563;BME280;34981;49.104;11.396;2023-08-24T11:59:16;95670.00;;;30.13;100.00
48563;BME280;34981;49.104;11.396;2023-08-24T12:01:43;95666.69;;;30.46;100.00
48563;BME280;34981;49.104;11.396;2023-08-24T12:04:12;95678.28;;;30.93;100.00
48563;BME280;34981;49.104;11.396;2023-08-24T12:06:39;95685.88;;;30.85;100.00
48563;BME280;34981;49.104;11.396;2023-08-24T12:09:07;95680.56;;;30.53;100.00
48563;BME280;34981;49.104;11.396;2023-08-24T12:11:35;95674.16;;;30.60;100.00
48563;BME280;34981;49.104;11.396;2023-08-24T12:14:02;95663.97;;;30.36;100.00
48563;BME280;34981;49.104;11.396;2023-08-24T12:16:30;95671.56;;;30.90;100.00
48563;BME280;34981;49.104;11.396;2023-08-24T12:18:58;95670.69;;;31.01;100.00
48563;BME280;34981;49.104;11.396;2023-08-24T12:21:32;95685.28;;;31.19;100.00
48563;BME280;34981;49.104;11.396;2023-08-24T12:24:00;95697.53;;;31.25;100.00
48563;BME280;34981;49.104;11.396;2023-08-24T12:26:28;95670.84;;;30.83;100.00
48563;BME280;34981;49.104;11.396;2023-08-24T12:28:59;95668.09;;;30.79;100.00
48563;BME280;34981;49.104;11.396;2023-08-24T12:31:26;95662.44;;;30.93;100.00
48563;BME280;34981;49.104;11.396;2023-08-24T12:33:59;95663.72;;;30.78;100.00
48563;BME280;34981;49.104;11.396;2023-08-24T12:36:26;95660.28;;;31.19;100.00
48563;BME280;34981;49.104;11.396;2023-08-24T12:38:53;95644.59;;;30.91;100.00
48563;BME280;34981;49.104;11.396;2023-08-24T12:41:21;95640.31;;;30.83;100.00
48563;BME280;34981;49.104;11.396;2023-08-24T12:43:49;95631.53;;;30.26;100.00
48563;BME280;34981;49.104;11.396;2023-08-24T12:46:17;95610.88;;;30.37;100.00
48563;BME280;34981;49.104;11.396;2023-08-24T12:48:44;95612.47;;;30.35;100.00
48563;BME280;34981;49.104;11.396;2023-08-24T12:51:11;95601.75;;;30.37;100.00
48563;BME280;34981;49.104;11.396;2023-08-24T12:53:38;95600.13;;;30.46;100.00
48563;BME280;34981;49.104;11.396;2023-08-24T12:56:05;95585.56;;;30.83;100.00
48563;BME280;34981;49.104;11.396;2023-08-24T12:58:33;95579.06;;;30.60;100.00
48563;BME280;34981;49.104;11.396;2023-08-24T13:01:00;95594.03;;;30.00;100.00
48563;BME280;34981;49.104;11.396;2023-08-24T13:03:27;95584.16;;;30.02;100.00